Time;durP1;ratioP1;P1;durP2;ratioP2;P2;SDS_P1;SDS_P2;PMS_P1;PMS_P2;Temp;Humidity;BMP_temperature;BMP_pressure;BME280_temperature;BME280_humidity;BME280_pressure;Samples;Min_cycle;Max_cycle;Signal;HPM_P1;HPM_P2
2022/06/22 00:01:26;;;;;;;2.80;2.37;;;;;;;14.49;92.19;100799.78;5076616;28;21112;-68
2022/06/22 00:03:57;;;;;;;4.87;2.40;;;;;;;14.39;92.70;100798.16;5076593;28;20542;-72
2022/06/22 00:06:32;;;;;;;5.17;2.33;;;;;;;14.56;91.29;100787.25;5076985;28;20425;-71
2022/06/22 00:09:01;;;;;;;4.23;2.60;;;;;;;14.51;91.83;100789.34;5076901;28;20429;-70
2022/06/22 00:11:28;;;;;;;4.07;2.40;;;;;;;14.59;91.28;100797.53;5076683;28;20433;-70
2022/06/22 00:13:57;;;;;;;5.70;2.27;;;;;;;14.58;91.27;100789.69;5076747;28;20552;-71
2022/06/22 00:16:27;;;;;;;3.47;2.57;;;;;;;14.55;91.77;100795.78;5076466;28;20973;-71
2022/06/22 00:18:54;;;;;;;2.37;1.83;;;;;;;14.46;92.49;100789.50;5076338;28;20520;-72
2022/06/22 00:21:26;;;;;;;4.03;2.80;;;;;;;14.48;92.11;100804.44;5076168;28;20579;-70
2022/06/22 00:23:55;;;;;;;3.03;2.40;;;;;;;14.38;92.55;100796.53;5076509;28;20471;-72
2022/06/22 00:26:32;;;;;;;2.87;1.90;;;;;;;14.34;92.97;100796.41;5076516;28;20473;-70
2022/06/22 00:29:20;;;;;;;2.77;2.17;;;;;;;14.25;93.06;100798.31;5100161;22;20433;-71
2022/06/22 00:32:00;;;;;;;3.20;2.50;;;;;;;14.39;92.64;100804.41;5036461;28;20442;-74
2022/06/22 00:34:29;;;;;;;2.83;2.10;;;;;;;14.34;93.15;100809.22;5036487;28;20848;-75
2022/06/22 00:36:59;;;;;;;3.30;1.90;;;;;;;14.36;92.83;100801.53;5036342;28;20475;-75
2022/06/22 00:39:32;;;;;;;4.07;2.50;;;;;;;14.37;92.20;100806.66;5035961;28;20999;-75
2022/06/22 00:42:14;;;;;;;2.00;1.77;;;;;;;14.32;93.07;100798.63;5036225;28;20561;-75
2022/06/22 00:44:46;;;;;;;4.80;2.30;;;;;;;14.25;93.28;100797.50;5036266;28;20846;-74
2022/06/22 00:47:22;;;;;;;3.10;2.10;;;;;;;14.29;93.08;100802.00;5036199;28;20510;-75
2022/06/22 00:49:49;;;;;;;8.57;2.20;;;;;;;14.31;92.69;100798.97;5036081;28;20494;-75
2022/06/22 00:52:25;;;;;;;4.07;2.70;;;;;;;14.08;93.25;100801.84;5035794;28;20526;-74
2022/06/22 00:54:51;;;;;;;5.00;2.40;;;;;;;14.09;93.27;100792.53;5036057;28;20518;-75
2022/06/22 00:57:29;;;;;;;2.27;1.97;;;;;;;14.10;93.02;100798.78;5035693;28;20537;-74
2022/06/22 01:00:04;;;;;;;4.53;2.30;;;;;;;14.05;93.42;100796.22;5034213;28;21051;-75
2022/06/22 01:02:38;;;;;;;5.73;2.53;;;;;;;14.01;93.85;100785.16;5036092;28;20554;-75
2022/06/22 01:05:17;;;;;;;2.70;1.90;;;;;;;14.09;92.85;100798.00;5035879;28;20435;-74
2022/06/22 01:07:53;;;;;;;4.10;2.50;;;;;;;14.08;93.01;100796.41;5035851;28;20434;-75
2022/06/22 01:10:25;;;;;;;4.20;2.37;;;;;;;13.99;93.14;100797.47;5035741;28;20459;-75
2022/06/22 01:12:58;;;;;;;2.47;2.00;;;;;;;13.92;93.47;100799.91;5035865;28;20427;-77
2022/06/22 01:15:31;;;;;;;2.70;2.10;;;;;;;13.85;93.91;100794.91;5035430;28;20518;-75
2022/06/22 01:18:09;;;;;;;3.30;2.20;;;;;;;13.69;94.96;100796.50;5035679;28;20412;-75
2022/06/22 01:20:55;;;;;;;4.97;2.37;;;;;;;13.74;95.13;100791.69;5035139;28;20459;-75
2022/06/22 01:23:56;;;;;;;4.30;2.17;;;;;;;13.75;91.50;100790.56;5035759;28;20440;-74
2022/06/22 01:26:44;;;;;;;5.73;2.57;;;;;;;13.68;89.28;100787.53;5035512;28;20513;-74
2022/06/22 01:29:16;;;;;;;2.00;1.73;;;;;;;13.42;92.40;100786.66;5035125;28;20907;-74
2022/06/22 01:31:46;;;;;;;3.07;2.00;;;;;;;13.43;91.08;100785.53;5035117;28;20514;-74
2022/06/22 01:34:16;;;;;;;4.23;2.30;;;;;;;13.42;91.89;100778.47;5035373;28;20831;-74
2022/06/22 01:36:43;;;;;;;5.70;2.83;;;;;;;13.49;92.62;100778.81;5035326;28;20446;-74
2022/06/22 01:39:12;;;;;;;2.53;1.93;;;;;;;13.31;94.62;100773.31;5035212;28;20570;-74
2022/06/22 01:41:43;;;;;;;2.60;1.90;;;;;;;13.39;94.76;100769.03;5035131;28;20490;-74
2022/06/22 01:44:16;;;;;;;3.37;2.37;;;;;;;13.40;94.63;100764.38;5034772;28;20960;-75
2022/06/22 01:47:09;;;;;;;2.37;2.10;;;;;;;13.25;95.74;100766.41;5035133;28;20431;-74
2022/06/22 01:49:41;;;;;;;4.10;1.93;;;;;;;13.34;94.73;100767.25;5034998;28;20467;-74
2022/06/22 01:52:15;;;;;;;5.27;2.77;;;;;;;13.40;93.94;100764.38;5034736;28;20921;-75
2022/06/22 01:54:49;;;;;;;3.40;2.13;;;;;;;13.37;93.90;100763.91;5034963;28;20428;-74
2022/06/22 01:57:19;;;;;;;2.93;2.30;;;;;;;13.30;94.88;100755.38;5034918;28;20421;-75
2022/06/22 01:59:52;;;;;;;4.43;2.73;;;;;;;13.22;96.07;100768.91;5035056;28;20550;-74
2022/06/22 02:02:24;;;;;;;3.67;1.97;;;;;;;13.24;95.81;100762.09;5034975;28;20471;-74
2022/06/22 02:04:54;;;;;;;2.77;1.70;;;;;;;13.43;94.17;100758.31;5034890;28;20510;-74
2022/06/22 02:10:25;;;;;;;3.30;2.40;;;;;;;13.25;94.30;100755.53;5034132;28;20506;-74
2022/06/22 02:13:00;;;;;;;2.50;2.00;;;;;;;13.19;94.91;100755.94;5034609;28;20432;-73
2022/06/22 02:15:43;;;;;;;3.57;2.20;;;;;;;13.17;95.40;100761.72;5034559;28;20538;-73
2022/06/22 02:18:13;;;;;;;2.90;2.33;;;;;;;13.19;95.15;100767.63;5036712;28;20522;-74
2022/06/22 02:20:41;;;;;;;3.40;2.30;;;;;;;13.30;93.53;100760.03;5036877;28;20542;-74
2022/06/22 02:23:18;;;;;;;4.20;1.87;;;;;;;13.15;94.46;100758.50;5034352;28;20491;-74
2022/06/22 02:25:50;;;;;;;2.23;1.93;;;;;;;13.03;95.71;100756.38;5034368;28;20518;-74
2022/06/22 02:28:17;;;;;;;3.50;2.23;;;;;;;13.17;94.57;100767.16;5034424;28;20455;-74
2022/06/22 02:30:45;;;;;;;3.30;2.20;;;;;;;13.08;94.55;100756.22;5034068;28;20562;-74
2022/06/22 02:33:13;;;;;;;3.10;1.83;;;;;;;12.91;95.46;100752.63;5034188;28;20455;-74
2022/06/22 02:35:41;;;;;;;2.23;1.93;;;;;;;12.91;96.01;100753.44;5034133;28;20466;-74
2022/06/22 02:38:11;;;;;;;6.40;1.40;;;;;;;12.89;96.06;100750.22;5034092;28;20836;-74
2022/06/22 02:46:16;;;;;;;5.63;2.23;;;;;;;12.72;92.70;100756.38;5033779;28;21143;-74
2022/06/22 02:48:46;;;;;;;2.70;2.20;;;;;;;12.75;91.67;100760.38;5033941;28;20534;-74
2022/06/22 02:51:23;;;;;;;4.13;1.70;;;;;;;12.65;91.72;100761.44;5033813;28;21012;-74
2022/06/22 02:53:52;;;;;;;3.40;1.73;;;;;;;12.66;90.69;100757.63;5034046;28;20431;-74
2022/06/22 02:56:23;;;;;;;2.33;1.90;;;;;;;12.64;92.96;100746.25;5033805;28;20465;-73
2022/06/22 02:58:50;;;;;;;2.90;2.30;;;;;;;12.56;95.43;100760.56;5033664;28;20505;-73
2022/06/22 03:01:21;;;;;;;3.30;2.40;;;;;;;12.59;95.39;100751.81;5033307;28;20453;-73
2022/06/22 03:03:52;;;;;;;3.00;2.20;;;;;;;12.68;95.39;100749.94;5033745;28;20423;-73
2022/06/22 03:06:21;;;;;;;2.40;1.73;;;;;;;12.79;94.90;100745.03;5033441;28;20477;-73
2022/06/22 03:08:49;;;;;;;4.40;2.07;;;;;;;12.82;93.83;100737.06;5033559;28;20526;-71
2022/06/22 03:11:17;;;;;;;3.63;1.97;;;;;;;12.77;92.66;100748.09;5033562;28;20443;-72
2022/06/22 03:13:46;;;;;;;2.10;1.50;;;;;;;12.69;91.85;100754.25;5033258;28;20973;-74
2022/06/22 03:16:28;;;;;;;3.30;2.60;;;;;;;12.61;90.81;100750.38;5033739;28;20526;-76
2022/06/22 03:19:00;;;;;;;3.00;2.07;;;;;;;12.50;93.47;100745.53;5033427;28;20518;-74
2022/06/22 03:21:28;;;;;;;4.50;2.60;;;;;;;12.49;95.38;100750.16;5033050;28;20880;-74
2022/06/22 03:24:02;;;;;;;2.83;1.87;;;;;;;12.55;95.93;100748.91;5033032;28;20958;-74
2022/06/22 03:26:32;;;;;;;2.33;2.00;;;;;;;12.54;96.00;100739.16;5033645;28;20426;-74
2022/06/22 03:29:04;;;;;;;3.03;1.87;;;;;;;12.55;96.44;100732.59;5033295;28;20447;-74
2022/06/22 03:31:38;;;;;;;2.17;1.90;;;;;;;12.64;96.58;100724.50;5033058;28;20991;-74
2022/06/22 03:34:10;;;;;;;2.80;1.77;;;;;;;12.72;96.27;100715.59;5033570;28;20458;-74
2022/06/22 03:36:42;;;;;;;2.20;1.97;;;;;;;12.68;96.81;100711.91;5033488;28;20427;-74
2022/06/22 03:39:14;;;;;;;2.30;2.03;;;;;;;12.62;97.63;100710.44;5033123;28;20522;-73
2022/06/22 03:41:46;;;;;;;3.70;2.50;;;;;;;12.67;97.22;100715.75;5033157;28;20474;-73
2022/06/22 03:44:17;;;;;;;3.37;2.17;;;;;;;12.69;97.79;100710.78;5032859;28;20800;-74
2022/06/22 03:46:49;;;;;;;3.30;2.40;;;;;;;12.79;97.86;100699.66;5033500;28;20435;-74
2022/06/22 03:49:22;;;;;;;3.60;2.60;;;;;;;12.85;97.35;100713.91;5033102;28;20554;-74
2022/06/22 03:51:51;;;;;;;4.23;2.33;;;;;;;12.87;97.79;100709.75;5033187;28;20446;-73
2022/06/22 03:54:24;;;;;;;4.27;2.50;;;;;;;12.87;97.58;100709.75;5033106;28;20443;-74
2022/06/22 03:56:55;;;;;;;2.73;1.90;;;;;;;12.83;98.31;100708.75;5033111;28;20432;-74
2022/06/22 03:59:22;;;;;;;3.77;2.37;;;;;;;12.86;99.19;100710.88;5032673;28;20465;-74
2022/06/22 04:01:51;;;;;;;5.47;2.77;;;;;;;12.93;99.41;100702.28;5032634;28;20485;-74
2022/06/22 04:04:17;;;;;;;2.20;2.00;;;;;;;13.02;99.48;100708.53;5032727;28;20451;-74
2022/06/22 04:06:47;;;;;;;2.70;2.00;;;;;;;13.05;100.00;100707.09;5033027;28;20479;-74
2022/06/22 04:09:16;;;;;;;5.40;2.47;;;;;;;13.09;100.00;100705.34;5032808;28;20469;-74
2022/06/22 04:11:49;;;;;;;2.03;1.80;;;;;;;13.20;100.00;100708.59;5032875;28;20469;-74
2022/06/22 04:14:20;;;;;;;2.00;1.73;;;;;;;13.40;99.19;100709.97;5036360;28;20859;-75
2022/06/22 04:16:53;;;;;;;4.93;2.23;;;;;;;13.40;99.16;100712.69;5033249;28;20458;-75
2022/06/22 04:19:24;;;;;;;4.57;2.20;;;;;;;13.35;97.43;100708.19;5032526;28;20851;-74
2022/06/22 04:21:56;;;;;;;4.63;2.30;;;;;;;13.45;96.57;100715.25;5032467;28;20566;-75
2022/06/22 04:24:27;;;;;;;3.30;2.47;;;;;;;13.48;95.87;100718.13;5032828;28;20859;-74
2022/06/22 04:27:01;;;;;;;5.43;2.10;;;;;;;13.65;93.93;100716.56;5032819;28;20534;-74
2022/06/22 04:29:34;;;;;;;2.83;2.20;;;;;;;13.85;94.35;100710.50;5032494;28;20562;-75
2022/06/22 04:32:07;;;;;;;3.03;2.10;;;;;;;14.02;95.66;100706.97;5032800;28;20490;-75
2022/06/22 04:34:38;;;;;;;4.63;2.53;;;;;;;14.11;96.76;100708.56;5035308;28;20530;-75
2022/06/22 04:37:10;;;;;;;2.83;2.13;;;;;;;14.21;97.65;100718.34;5036401;28;20514;-75
2022/06/22 04:39:43;;;;;;;2.70;2.13;;;;;;;14.30;98.67;100713.69;5036354;28;20477;-75
2022/06/22 04:42:11;;;;;;;4.33;2.47;;;;;;;14.39;99.14;100717.22;5035923;28;20999;-74
2022/06/22 04:44:43;;;;;;;3.90;2.53;;;;;;;14.51;99.61;100726.66;5035975;28;20937;-74
2022/06/22 04:47:17;;;;;;;2.87;1.90;;;;;;;14.61;99.79;100726.34;5036260;28;20435;-74
2022/06/22 04:49:51;;;;;;;2.87;2.30;;;;;;;14.72;100.00;100724.84;5035784;28;20465;-73
2022/06/22 04:52:22;;;;;;;7.17;2.77;;;;;;;14.80;100.00;100728.69;5036139;28;20514;-73
2022/06/22 04:54:52;;;;;;;2.30;2.10;;;;;;;14.89;100.00;100719.34;5036111;28;20502;-73
2022/06/22 04:57:22;;;;;;;5.33;2.70;;;;;;;15.01;100.00;100728.78;5036031;28;20538;-73
2022/06/22 04:59:50;;;;;;;3.67;2.40;;;;;;;15.09;100.00;100728.72;5035818;28;20459;-74
2022/06/22 05:02:21;;;;;;;2.63;2.10;;;;;;;15.19;100.00;100733.03;5035494;28;20862;-73
2022/06/22 05:04:50;;;;;;;9.57;2.70;;;;;;;15.28;100.00;100727.53;5035915;28;20517;-73
2022/06/22 05:07:31;;;;;;;4.07;2.53;;;;;;;15.39;100.00;100729.53;5036085;28;20435;-73
2022/06/22 05:10:03;;;;;;;4.67;3.00;;;;;;;15.55;100.00;100731.72;5035687;28;20558;-73
2022/06/22 05:12:44;;;;;;;5.10;2.77;;;;;;;15.65;100.00;100736.81;5035691;28;20427;-73
2022/06/22 05:15:20;;;;;;;18.33;3.53;;;;;;;15.77;100.00;100741.56;5035401;28;20431;-72
2022/06/22 05:17:49;;;;;;;4.50;2.70;;;;;;;15.97;100.00;100753.63;5035686;28;20798;-73
2022/06/22 05:20:21;;;;;;;2.30;1.97;;;;;;;16.17;99.27;100741.88;5035558;28;20555;-73
2022/06/22 05:22:50;;;;;;;4.10;2.50;;;;;;;16.33;97.63;100751.03;5035251;28;21002;-73
2022/06/22 05:25:18;;;;;;;2.90;2.30;;;;;;;16.50;96.61;100749.28;5035784;28;20443;-73
2022/06/22 05:27:52;;;;;;;3.50;2.70;;;;;;;16.63;96.08;100761.88;5035347;28;20879;-73
2022/06/22 05:30:19;;;;;;;2.87;2.27;;;;;;;16.75;94.78;100758.41;5035049;28;20474;-73
2022/06/22 05:32:51;;;;;;;4.30;2.67;;;;;;;16.88;93.67;100766.31;5035337;28;20994;-74
2022/06/22 05:35:23;;;;;;;4.73;2.53;;;;;;;17.00;93.48;100764.72;5035089;28;20415;-71
2022/06/22 05:37:53;;;;;;;4.97;2.27;;;;;;;17.09;94.26;100768.16;5035309;28;20515;-73
2022/06/22 05:40:24;;;;;;;3.97;2.73;;;;;;;17.18;93.30;100776.25;5034873;28;20542;-75
2022/06/22 05:42:51;;;;;;;3.27;2.23;;;;;;;17.28;91.69;100770.34;5035069;28;20498;-75
2022/06/22 05:45:21;;;;;;;4.17;2.20;;;;;;;17.43;90.06;100766.91;5034206;28;20443;-76
2022/06/22 05:47:49;;;;;;;2.00;1.80;;;;;;;17.53;88.95;100771.13;5035096;28;20443;-76
2022/06/22 05:50:27;;;;;;;2.10;1.43;;;;;;;17.63;88.14;100785.19;5035008;28;20546;-76
2022/06/22 05:53:00;;;;;;;7.17;1.77;;;;;;;17.79;82.28;100790.75;5035035;28;20427;-75
2022/06/22 05:55:33;;;;;;;1.63;1.50;;;;;;;18.02;78.91;100790.28;5034925;28;20457;-73
2022/06/22 05:58:06;;;;;;;2.13;1.37;;;;;;;18.22;78.91;100794.78;5034854;28;20523;-76
2022/06/22 06:00:38;;;;;;;5.33;2.20;;;;;;;18.36;78.16;100786.19;5034720;28;20463;-71
2022/06/22 06:03:13;;;;;;;2.33;1.73;;;;;;;18.49;77.59;100789.66;5034830;28;20567;-77
2022/06/22 06:05:42;;;;;;;4.03;1.80;;;;;;;18.55;73.45;100794.56;5035515;28;20458;-74
2022/06/22 06:08:15;;;;;;;2.07;1.50;;;;;;;18.76;73.78;100802.59;5039811;28;20449;-76
2022/06/22 06:10:43;;;;;;;4.30;1.40;;;;;;;18.97;73.14;100801.59;5034650;28;20471;-76
2022/06/22 06:13:19;;;;;;;1.57;1.27;;;;;;;19.07;72.08;100806.53;5035464;28;20474;-78
2022/06/22 06:15:48;;;;;;;2.50;1.30;;;;;;;19.22;71.23;100810.47;5035297;28;20514;-78
2022/06/22 06:18:18;;;;;;;1.70;1.43;;;;;;;19.35;72.29;100810.03;5036603;28;20447;-78
2022/06/22 06:20:48;;;;;;;6.17;1.90;;;;;;;19.49;68.06;100806.03;5036394;28;21055;-77
2022/06/22 06:23:20;;;;;;;1.67;1.07;;;;;;;19.65;68.47;100795.81;5035315;28;20489;-77
2022/06/22 06:28:40;;;;;;;2.20;1.57;;;;;;;19.87;65.73;100789.66;5034902;28;20435;-77
2022/06/22 06:31:13;;;;;;;2.10;1.30;;;;;;;19.99;65.54;100782.44;5034805;28;20570;-77
2022/06/22 06:33:41;;;;;;;1.77;1.17;;;;;;;20.03;66.60;100769.56;5034598;28;20523;-77
2022/06/22 06:36:16;;;;;;;3.10;1.60;;;;;;;20.11;68.08;100769.38;5035020;28;20534;-77
2022/06/22 06:38:48;;;;;;;1.83;1.03;;;;;;;20.15;67.74;100773.00;5034818;28;20445;-75
2022/06/22 06:41:22;;;;;;;3.53;1.47;;;;;;;20.21;64.82;100768.00;5034282;28;20518;-74
2022/06/22 06:43:51;;;;;;;1.37;1.03;;;;;;;20.26;65.17;100770.44;5035449;28;20467;-77
2022/06/22 06:46:23;;;;;;;2.50;1.07;;;;;;;20.29;65.37;100772.47;5034490;28;20490;-77
2022/06/22 06:48:57;;;;;;;1.20;0.90;;;;;;;20.36;63.60;100766.31;5036816;28;20510;-78
2022/06/22 06:51:25;;;;;;;2.00;1.43;;;;;;;20.41;62.62;100761.34;5033988;28;20427;-76
2022/06/22 06:53:57;;;;;;;1.40;0.80;;;;;;;20.49;62.19;100766.97;5034205;28;20439;-76
2022/06/22 06:56:30;;;;;;;1.33;1.10;;;;;;;20.57;58.62;100774.22;5033873;28;20455;-76
2022/06/22 06:58:59;;;;;;;1.33;0.90;;;;;;;20.63;58.77;100786.56;5034190;28;20426;-78
2022/06/22 07:01:29;;;;;;;3.13;0.93;;;;;;;20.73;50.08;100796.16;5035447;28;20904;-74
2022/06/22 07:04:00;;;;;;;0.70;0.53;;;;;;;20.97;49.88;100800.53;5033556;28;20522;-72
2022/06/22 07:06:27;;;;;;;1.47;1.20;;;;;;;21.04;52.04;100798.69;5033983;28;20470;-73
2022/06/22 07:08:59;;;;;;;0.90;0.80;;;;;;;21.16;53.69;100794.94;5033753;28;20442;-73
2022/06/22 07:11:34;;;;;;;1.40;0.90;;;;;;;21.16;51.63;100794.94;5033697;28;20497;-73
2022/06/22 07:14:06;;;;;;;1.33;0.93;;;;;;;21.13;50.52;100782.72;5033311;28;20900;-73
2022/06/22 07:16:33;;;;;;;1.30;0.90;;;;;;;21.26;51.89;100786.09;5033563;28;20467;-74
2022/06/22 07:19:06;;;;;;;2.60;1.07;;;;;;;21.34;52.73;100785.06;5033890;28;20446;-73
2022/06/22 07:21:41;;;;;;;0.80;0.70;;;;;;;21.37;52.10;100776.03;5033324;28;20913;-73
2022/06/22 07:24:13;;;;;;;1.43;1.00;;;;;;;21.49;51.03;100782.53;5033510;28;20528;-73
2022/06/22 07:26:52;;;;;;;4.90;1.30;;;;;;;21.64;49.55;100787.09;5033212;28;20435;-73
2022/06/22 07:29:27;;;;;;;2.03;1.17;;;;;;;21.80;48.77;100790.47;5033208;28;20514;-74
2022/06/22 07:32:00;;;;;;;0.80;0.60;;;;;;;21.91;46.74;100791.44;5033038;28;20978;-74
2022/06/22 07:34:34;;;;;;;1.73;1.00;;;;;;;21.94;47.96;100792.63;5033369;28;20511;-75
2022/06/22 07:37:09;;;;;;;3.53;1.00;;;;;;;22.06;47.12;100794.38;5032979;28;20424;-74
2022/06/22 07:39:43;;;;;;;1.90;0.70;;;;;;;22.11;48.29;100786.56;5033347;28;20548;-75
2022/06/22 07:42:12;;;;;;;0.90;0.80;;;;;;;22.16;48.87;100782.72;5033479;28;20925;-73
2022/06/22 07:44:40;;;;;;;2.87;1.37;;;;;;;22.20;47.79;100782.75;5033133;28;20478;-72
2022/06/22 07:47:16;;;;;;;3.50;0.87;;;;;;;22.28;47.03;100801.78;5033174;28;20443;-74
2022/06/22 07:49:52;;;;;;;1.43;0.93;;;;;;;22.41;47.21;100796.81;5033116;28;20478;-74
2022/06/22 07:52:23;;;;;;;2.00;1.33;;;;;;;22.47;49.41;100794.53;5033133;28;20804;-74
2022/06/22 07:54:53;;;;;;;1.53;1.00;;;;;;;22.45;49.00;100786.63;5033417;28;20427;-76
2022/06/22 07:57:28;;;;;;;1.00;0.60;;;;;;;22.54;48.60;100789.09;5033207;28;20506;-74
2022/06/22 07:59:58;;;;;;;1.63;1.00;;;;;;;22.64;47.62;100796.69;5033041;28;20466;-76
2022/06/22 08:02:29;;;;;;;1.10;0.70;;;;;;;22.81;45.16;100790.56;5032745;28;20802;-76
2022/06/22 08:05:02;;;;;;;6.17;1.20;;;;;;;22.83;44.55;100790.16;5037543;28;20650;-75
2022/06/22 08:07:35;;;;;;;2.20;1.00;;;;;;;22.77;46.62;100788.94;5033068;28;20518;-76
2022/06/22 08:10:07;;;;;;;1.00;0.80;;;;;;;22.77;46.19;100783.41;5036349;28;20485;-76
2022/06/22 08:12:40;;;;;;;1.10;0.60;;;;;;;22.85;45.36;100777.56;5036908;28;20429;-76
2022/06/22 08:15:09;;;;;;;1.30;0.90;;;;;;;22.90;45.05;100779.22;5036728;28;20518;-76
2022/06/22 08:17:42;;;;;;;1.70;0.80;;;;;;;22.95;44.90;100780.84;5036662;28;20439;-76
2022/06/22 08:20:14;;;;;;;2.07;1.10;;;;;;;22.95;44.86;100769.78;5036374;28;20470;-76
2022/06/22 08:22:43;;;;;;;4.50;1.17;;;;;;;22.91;43.73;100767.78;5036582;28;20802;-76
2022/06/22 08:25:11;;;;;;;1.10;0.80;;;;;;;23.04;44.23;100771.06;5036704;28;20454;-76
2022/06/22 08:27:39;;;;;;;1.40;0.97;;;;;;;23.11;43.40;100770.34;5036121;28;20439;-76
2022/06/22 08:30:09;;;;;;;1.40;0.70;;;;;;;23.08;43.44;100765.56;5035972;28;20478;-75
2022/06/22 08:32:41;;;;;;;4.60;0.80;;;;;;;23.11;43.78;100770.34;5036437;28;20504;-77
2022/06/22 08:35:17;;;;;;;0.97;0.70;;;;;;;23.13;43.80;100768.78;5036092;28;20423;-76
2022/06/22 08:37:49;;;;;;;1.57;0.90;;;;;;;23.12;44.79;100767.19;5036336;28;20431;-76
2022/06/22 08:40:25;;;;;;;1.70;1.10;;;;;;;23.28;43.28;100763.34;5035948;28;20482;-77
2022/06/22 08:42:58;;;;;;;1.30;0.90;;;;;;;23.27;43.78;100767.31;5036360;28;20480;-76
2022/06/22 08:45:38;;;;;;;2.17;0.97;;;;;;;23.27;44.73;100762.56;5036244;28;20501;-76
2022/06/22 08:48:52;;;;;;;1.00;0.90;;;;;;;23.26;45.20;100760.97;5036087;28;20510;-76
2022/06/22 08:51:38;;;;;;;1.23;0.60;;;;;;;23.37;44.25;100761.06;5036097;28;20443;-76
2022/06/22 08:54:28;;;;;;;0.60;0.57;;;;;;;23.48;43.89;100763.91;5036124;28;20428;-76
2022/06/22 08:57:02;;;;;;;0.70;0.53;;;;;;;23.56;42.54;100757.25;5036103;28;20518;-75
2022/06/22 08:59:46;;;;;;;1.07;0.70;;;;;;;23.54;43.51;100757.63;5036007;28;20520;-76
2022/06/22 09:02:38;;;;;;;1.00;0.80;;;;;;;23.69;43.19;100758.56;5035773;28;20519;-76
2022/06/22 09:05:20;;;;;;;4.63;0.90;;;;;;;23.58;42.90;100752.91;5035879;28;20471;-76
2022/06/22 09:08:12;;;;;;;1.17;0.80;;;;;;;23.54;43.61;100748.53;5035913;28;20441;-73
2022/06/22 09:10:53;;;;;;;1.33;1.03;;;;;;;23.52;43.45;100746.16;5035665;28;21010;-72
2022/06/22 09:13:44;;;;;;;1.70;0.90;;;;;;;23.62;46.05;100756.47;5035661;28;20502;-72
2022/06/22 09:16:26;;;;;;;0.93;0.60;;;;;;;23.72;42.95;100757.75;5035564;28;20816;-72
2022/06/22 09:19:17;;;;;;;1.37;0.80;;;;;;;23.77;42.58;100760.16;5035661;28;20439;-73
2022/06/22 09:21:59;;;;;;;1.17;1.00;;;;;;;23.87;43.47;100755.88;5034687;28;20431;-72
2022/06/22 09:24:40;;;;;;;1.53;1.10;;;;;;;24.06;41.14;100766.63;5035431;28;20562;-73
2022/06/22 09:27:16;;;;;;;1.40;0.90;;;;;;;24.11;41.83;100768.22;5035772;28;20433;-73
2022/06/22 09:30:01;;;;;;;2.70;1.33;;;;;;;24.14;42.29;100768.25;5035216;28;20482;-70
2022/06/22 09:33:08;;;;;;;1.00;0.70;;;;;;;24.16;41.51;100762.31;5035400;28;20439;-76
2022/06/22 09:35:49;;;;;;;1.37;0.83;;;;;;;24.22;40.72;100771.84;5024905;28;21028;-75
2022/06/22 09:38:32;;;;;;;5.07;0.80;;;;;;;24.16;42.00;100767.84;5035473;28;20415;-74
2022/06/22 09:41:07;;;;;;;1.20;0.70;;;;;;;24.24;40.65;100763.94;5035437;28;20572;-72
2022/06/22 09:44:08;;;;;;;1.03;0.80;;;;;;;24.30;40.21;100773.44;5035143;28;20994;-74
2022/06/22 09:47:07;;;;;;;1.63;0.80;;;;;;;24.28;40.56;100770.28;5035125;28;20447;-74
2022/06/22 09:50:01;;;;;;;2.00;0.77;;;;;;;24.35;40.72;100764.00;5108420;22;20496;-75
2022/06/22 09:52:58;;;;;;;0.83;0.60;;;;;;;24.33;38.42;100761.59;5095169;28;20534;-75
2022/06/22 09:58:53;;;;;;;3.27;0.70;;;;;;;24.50;40.97;100767.63;5095388;28;20455;-74
2022/06/22 10:01:31;;;;;;;1.03;0.87;;;;;;;24.54;41.31;100773.97;5094762;28;20435;-71
2022/06/22 10:04:31;;;;;;;0.80;0.60;;;;;;;24.56;40.92;100774.34;5094792;28;21054;-74
2022/06/22 10:07:09;;;;;;;0.90;0.80;;;;;;;24.58;39.54;100783.88;5094543;28;20964;-72
2022/06/22 10:09:50;;;;;;;1.80;0.80;;;;;;;24.73;39.50;100784.69;5094980;28;20547;-73
2022/06/22 10:12:36;;;;;;;2.30;0.90;;;;;;;24.84;39.14;100771.66;5094681;28;20425;-72
2022/06/22 10:15:24;;;;;;;1.13;0.70;;;;;;;24.83;38.82;100778.34;5094859;28;20439;-73
2022/06/22 10:18:15;;;;;;;2.63;0.90;;;;;;;24.85;38.62;100775.22;5094482;28;20440;-72
2022/06/22 10:20:58;;;;;;;1.20;0.73;;;;;;;24.98;37.90;100775.63;5094546;28;20524;-73
2022/06/22 10:23:40;;;;;;;1.20;0.70;;;;;;;24.99;38.85;100769.69;5094776;28;20428;-73
2022/06/22 10:26:25;;;;;;;1.10;0.70;;;;;;;25.00;38.28;100770.47;5094638;28;20846;-71
2022/06/22 10:29:08;;;;;;;1.00;0.67;;;;;;;24.90;37.94;100772.84;5093777;28;20475;-72
2022/06/22 10:31:51;;;;;;;1.07;0.77;;;;;;;25.00;39.57;100762.16;5093820;28;20439;-72
2022/06/22 10:34:46;;;;;;;1.10;0.67;;;;;;;25.02;39.21;100768.91;5094557;28;20424;-72
2022/06/22 10:37:43;;;;;;;0.90;0.70;;;;;;;25.02;37.32;100768.09;5094028;28;20472;-72
2022/06/22 10:46:12;;;;;;;0.70;0.53;;;;;;;25.55;37.63;100759.78;5094438;28;20466;-73
2022/06/22 10:49:08;;;;;;;0.90;0.60;;;;;;;25.74;38.36;100768.84;5093905;28;20468;-74
2022/06/22 10:51:55;;;;;;;1.47;1.00;;;;;;;25.84;36.99;100766.06;5090635;28;20456;-73
2022/06/22 10:55:00;;;;;;;0.90;0.60;;;;;;;25.85;36.90;100767.66;5094302;28;20432;-73
2022/06/22 10:58:02;;;;;;;1.20;0.80;;;;;;;25.81;37.61;100766.06;5087106;28;20452;-73
2022/06/22 11:00:46;;;;;;;1.13;0.77;;;;;;;25.96;37.01;100759.28;5067767;28;21009;-73
2022/06/22 11:03:43;;;;;;;0.90;0.70;;;;;;;26.07;37.78;100773.13;5093700;28;20903;-73
2022/06/22 11:06:41;;;;;;;1.20;0.80;;;;;;;26.27;37.88;100767.91;5093640;28;20898;-75
2022/06/22 11:09:20;;;;;;;1.63;1.23;;;;;;;26.31;37.25;100769.47;5094026;28;20472;-73
2022/06/22 11:12:12;;;;;;;0.90;0.70;;;;;;;26.32;37.86;100762.72;5093792;28;20504;-74
2022/06/22 11:15:14;;;;;;;1.90;0.83;;;;;;;26.41;37.17;100765.84;5093668;28;20470;-75
2022/06/22 11:18:06;;;;;;;1.23;0.70;;;;;;;26.82;37.44;100773.53;5068034;28;20444;-73
2022/06/22 11:20:47;;;;;;;1.57;0.87;;;;;;;27.03;36.85;100774.59;5094901;28;20420;-75
2022/06/22 11:23:21;;;;;;;1.70;0.87;;;;;;;27.32;34.30;100777.97;5095869;28;20420;-80
2022/06/22 11:32:33;;;;;;;1.43;0.83;;;;;;;28.35;31.62;100781.66;5095198;28;20415;-78
2022/06/22 11:35:32;;;;;;;3.23;0.80;;;;;;;28.90;34.00;100781.25;5094412;28;20499;-77
2022/06/22 11:38:13;;;;;;;1.47;0.70;;;;;;;29.42;32.25;100780.81;5094705;28;20492;-78
2022/06/22 11:40:56;;;;;;;2.20;0.77;;;;;;;29.93;31.90;100775.13;5094793;28;20433;-77
2022/06/22 11:43:41;;;;;;;1.77;0.90;;;;;;;30.33;32.54;100773.13;5094429;28;20424;-77
2022/06/22 11:46:20;;;;;;;1.43;0.90;;;;;;;30.69;29.66;100763.13;5093106;28;20841;-71
2022/06/22 11:49:08;;;;;;;0.80;0.60;;;;;;;30.70;32.52;100762.69;5092842;28;20464;-70
2022/06/22 11:51:59;;;;;;;0.80;0.60;;;;;;;30.94;30.69;100757.72;5092866;28;20421;-71
2022/06/22 11:54:48;;;;;;;1.87;1.17;;;;;;;31.04;28.67;100753.91;5093232;28;20448;-71
2022/06/22 11:57:32;;;;;;;0.80;0.70;;;;;;;30.59;28.11;100751.75;5090607;28;20452;-71
2022/06/22 12:00:09;;;;;;;3.07;0.80;;;;;;;30.70;29.13;100754.28;5092685;28;20985;-72
2022/06/22 12:03:18;;;;;;;0.60;0.50;;;;;;;30.70;28.21;100759.88;5093046;28;20434;-70
2022/06/22 12:06:24;;;;;;;1.10;0.80;;;;;;;30.94;28.54;100742.97;5092660;28;20572;-70
2022/06/22 12:09:09;;;;;;;1.20;0.80;;;;;;;30.95;27.88;100753.72;5051905;28;20553;-70
2022/06/22 12:11:47;;;;;;;1.40;0.90;;;;;;;31.01;28.46;100754.78;5093133;28;20420;-70
2022/06/22 12:17:39;;;;;;;0.70;0.70;;;;;;;31.36;30.12;100739.09;5085167;28;20510;-71
2022/06/22 12:20:25;;;;;;;0.70;0.60;;;;;;;31.56;28.44;100743.75;5093060;28;20474;-71
2022/06/22 12:23:05;;;;;;;0.70;0.60;;;;;;;31.68;27.99;100740.22;5093120;28;20424;-72
2022/06/22 12:25:45;;;;;;;0.90;0.70;;;;;;;31.61;27.69;100746.03;5092494;28;20460;-70
2022/06/22 12:28:39;;;;;;;2.43;1.00;;;;;;;31.68;30.39;100751.44;5092610;28;20460;-72
2022/06/22 12:31:15;;;;;;;1.37;0.93;;;;;;;32.17;29.93;100742.84;5092991;28;20793;-71
2022/06/22 12:33:46;;;;;;;1.00;0.70;;;;;;;32.35;28.29;100743.09;5092901;28;20413;-71
2022/06/22 12:36:17;;;;;;;1.53;0.80;;;;;;;32.48;27.99;100747.94;5092872;28;20508;-72